createdAt,value
2023-04-02T00:00:59.444Z,11.50
2023-04-02T00:03:45.673Z,11.50
2023-04-02T00:06:34.078Z,11.30
2023-04-02T00:09:19.412Z,11.20
2023-04-02T00:11:54.947Z,11.20
2023-04-02T00:14:34.046Z,10.80
2023-04-02T00:17:04.831Z,10.60
2023-04-02T00:19:51.859Z,10.90
2023-04-02T00:22:22.448Z,11.20
2023-04-02T00:24:54.295Z,11.30
2023-04-02T00:27:22.133Z,11.20
2023-04-02T00:29:51.176Z,11.30
2023-04-02T00:32:25.033Z,11.40
2023-04-02T00:34:53.098Z,11.30
2023-04-02T00:37:25.176Z,11.20
2023-04-02T00:40:07.330Z,11.30
2023-04-02T00:42:42.032Z,11.10
2023-04-02T00:45:31.872Z,11.00
2023-04-02T00:48:24.192Z,11.00
2023-04-02T00:50:53.375Z,10.90
2023-04-02T00:53:27.043Z,10.80
2023-04-02T00:55:54.450Z,10.80
2023-04-02T00:58:34.178Z,10.80
2023-04-02T01:01:01.922Z,10.70
2023-04-02T01:03:37.674Z,10.60
2023-04-02T01:06:11.209Z,10.50
2023-04-02T01:09:06.163Z,10.30
2023-04-02T01:11:52.332Z,10.20
2023-04-02T01:14:49.070Z,10.20
2023-04-02T01:17:34.396Z,10.30
2023-04-02T01:20:23.518Z,10.20
2023-04-02T01:22:55.175Z,10.20
2023-04-02T01:25:39.121Z,10.10
2023-04-02T01:28:19.770Z,10.10
2023-04-02T01:30:52.718Z,10.10
2023-04-02T01:33:28.885Z,10.30
2023-04-02T01:36:32.133Z,10.30
2023-04-02T01:39:23.945Z,10.30
2023-04-02T01:42:08.386Z,10.20
2023-04-02T01:44:50.026Z,10.10
2023-04-02T01:47:29.147Z,9.80
2023-04-02T01:50:19.447Z,9.80
2023-04-02T01:52:57.350Z,10.00
2023-04-02T01:55:33.470Z,10.00
2023-04-02T01:58:02.496Z,10.20
2023-04-02T02:00:36.800Z,10.20
2023-04-02T02:03:06.459Z,10.30
2023-04-02T02:05:33.953Z,10.30
2023-04-02T02:08:08.984Z,10.40
2023-04-02T02:10:40.038Z,10.50
2023-04-02T02:13:15.262Z,10.50
2023-04-02T02:15:42.482Z,10.40
2023-04-02T02:18:13.261Z,10.50
2023-04-02T02:20:41.788Z,10.50
2023-04-02T02:23:13.056Z,10.50
2023-04-02T02:25:41.248Z,10.50
2023-04-02T02:28:20.040Z,10.30
2023-04-02T02:30:53.300Z,10.40
2023-04-02T02:34:01.866Z,10.40
2023-04-02T02:36:29.625Z,10.30
2023-04-02T02:39:35.004Z,10.10
2023-04-02T02:42:09.078Z,10.30
2023-04-02T02:44:42.468Z,10.30
2023-04-02T02:47:12.467Z,10.40
2023-04-02T02:49:55.048Z,10.20
2023-04-02T02:52:27.985Z,10.20
2023-04-02T02:55:09.579Z,10.20
2023-04-02T02:57:42.361Z,10.20
2023-04-02T03:00:16.637Z,10.10
2023-04-02T03:02:45.288Z,10.20
2023-04-02T03:05:29.460Z,10.10
2023-04-02T03:07:58.376Z,10.10
2023-04-02T03:10:43.478Z,9.90
2023-04-02T03:13:23.585Z,9.90
2023-04-02T03:16:17.990Z,9.80
2023-04-02T03:19:17.995Z,9.80
2023-04-02T03:22:06.327Z,9.70
2023-04-02T03:24:43.190Z,9.70
2023-04-02T03:27:16.843Z,9.70
2023-04-02T03:30:24.302Z,9.50
2023-04-02T03:32:57.413Z,9.50
2023-04-02T03:35:42.270Z,9.40
2023-04-02T03:38:21.165Z,9.30
2023-04-02T03:41:21.129Z,9.20
2023-04-02T03:43:53.171Z,9.40
2023-04-02T03:46:30.818Z,9.60
2023-04-02T03:49:01.486Z,9.70
2023-04-02T03:51:40.697Z,9.70
2023-04-02T03:54:15.580Z,9.70
2023-04-02T03:56:47.646Z,9.70
2023-04-02T03:59:43.592Z,9.80
2023-04-02T04:02:20.758Z,9.80
2023-04-02T04:04:50.494Z,9.90
2023-04-02T04:07:37.973Z,9.90
2023-04-02T04:10:08.233Z,9.90
2023-04-02T04:12:40.315Z,9.70
2023-04-02T04:15:32.131Z,9.70
2023-04-02T04:18:27.398Z,9.70
2023-04-02T04:20:59.279Z,9.70
2023-04-02T04:23:33.612Z,9.70
2023-04-02T04:26:24.745Z,9.80
2023-04-02T04:29:25.461Z,9.70
2023-04-02T04:31:57.604Z,9.70
2023-04-02T04:34:42.414Z,9.80
2023-04-02T04:37:24.340Z,9.90
2023-04-02T04:40:05.501Z,10.00
2023-04-02T04:42:36.156Z,9.90
2023-04-02T04:48:20.709Z,10.00
2023-04-02T04:51:30.666Z,9.90
2023-04-02T04:54:01.547Z,10.00
2023-04-02T04:56:31.616Z,10.10
2023-04-02T04:59:03.944Z,10.00
2023-04-02T05:01:40.890Z,9.80
2023-04-02T05:04:30.027Z,9.90
2023-04-02T05:07:24.477Z,10.00
2023-04-02T05:10:11.962Z,10.10
2023-04-02T05:13:18.509Z,10.10
2023-04-02T05:16:04.039Z,10.20
2023-04-02T05:18:55.967Z,10.10
2023-04-02T05:21:48.022Z,10.20
2023-04-02T05:24:47.646Z,10.10
2023-04-02T05:27:29.212Z,9.80
2023-04-02T05:30:27.672Z,10.00
2023-04-02T05:33:00.179Z,10.30
2023-04-02T05:35:38.116Z,10.30
2023-04-02T05:38:07.149Z,10.20
2023-04-02T05:40:42.944Z,9.90
2023-04-02T05:43:13.947Z,9.90
2023-04-02T05:45:46.435Z,9.90
2023-04-02T05:48:26.185Z,9.90
2023-04-02T05:50:57.298Z,10.00
2023-04-02T05:53:36.382Z,10.20
2023-04-02T05:56:18.237Z,10.50
2023-04-02T05:59:35.069Z,10.70
2023-04-02T06:02:17.686Z,10.60
2023-04-02T06:05:36.709Z,10.60
2023-04-02T06:08:13.961Z,10.70
2023-04-02T06:10:54.022Z,10.70
2023-04-02T06:13:21.506Z,10.70
2023-04-02T06:15:51.888Z,10.80
2023-04-02T06:18:31.468Z,10.90
2023-04-02T06:20:59.316Z,11.20
2023-04-02T06:23:54.314Z,11.50
2023-04-02T06:26:50.691Z,11.40
2023-04-02T06:29:31.534Z,11.40
2023-04-02T06:32:02.192Z,11.50
2023-04-02T06:34:32.283Z,11.40
2023-04-02T06:37:10.774Z,11.70
2023-04-02T06:39:40.720Z,11.90
2023-04-02T06:42:27.633Z,12.00
2023-04-02T06:45:00.943Z,12.00
2023-04-02T06:47:39.890Z,12.50
2023-04-02T06:50:17.864Z,12.50
2023-04-02T06:56:29.869Z,12.30
2023-04-02T06:58:59.908Z,12.70
2023-04-02T07:01:36.189Z,13.20
2023-04-02T07:04:07.038Z,13.40
2023-04-02T07:06:34.643Z,13.10
2023-04-02T07:09:02.013Z,13.10
2023-04-02T07:11:37.010Z,13.50
2023-04-02T07:14:10.561Z,13.80
2023-04-02T07:16:37.892Z,13.90
2023-04-02T07:19:05.566Z,13.80
2023-04-02T07:21:36.161Z,13.70
2023-04-02T07:24:06.906Z,13.90
2023-04-02T07:26:34.210Z,13.90
2023-04-02T07:29:01.541Z,13.50
2023-04-02T07:31:29.121Z,13.60
2023-04-02T07:34:00.832Z,13.70
2023-04-02T07:36:30.803Z,14.00
2023-04-02T07:38:58.728Z,14.10
2023-04-02T07:41:27.074Z,14.30
2023-04-02T07:43:57.080Z,14.40
2023-04-02T07:46:26.737Z,14.40
2023-04-02T07:49:01.846Z,14.70
2023-04-02T07:51:29.048Z,14.70
2023-04-02T07:53:57.564Z,14.80
2023-04-02T07:56:48.648Z,14.90
2023-04-02T07:59:19.374Z,14.70
2023-04-02T08:01:49.489Z,14.80
2023-04-02T08:04:22.207Z,14.70
2023-04-02T08:06:50.562Z,14.70
2023-04-02T08:09:17.811Z,14.80
2023-04-02T08:11:49.482Z,14.90
2023-04-02T08:14:21.887Z,15.20
2023-04-02T08:16:54.631Z,14.70
2023-04-02T08:19:27.606Z,14.70
2023-04-02T08:21:58.457Z,14.80
2023-04-02T08:24:25.657Z,14.80
2023-04-02T08:26:54.636Z,15.10
2023-04-02T08:29:25.826Z,15.20
2023-04-02T08:31:56.224Z,15.60
2023-04-02T08:34:23.869Z,15.80
2023-04-02T08:36:56.031Z,16.10
2023-04-02T08:39:30.688Z,16.10
2023-04-02T08:42:26.437Z,16.30
2023-04-02T08:45:13.687Z,16.60
2023-04-02T08:48:03.618Z,16.60
2023-04-02T08:50:39.649Z,16.40
2023-04-02T08:53:25.344Z,16.40
2023-04-02T08:56:03.797Z,15.90
2023-04-02T08:59:05.045Z,16.40
2023-04-02T09:02:12.580Z,17.00
2023-04-02T09:04:43.147Z,16.80
2023-04-02T09:07:24.394Z,16.90
2023-04-02T09:10:15.598Z,17.30
2023-04-02T09:13:22.905Z,17.20
2023-04-02T09:15:53.657Z,17.20
2023-04-02T09:18:23.521Z,17.20
2023-04-02T09:20:53.914Z,17.30
2023-04-02T09:23:24.693Z,17.50
2023-04-02T09:26:03.581Z,17.50
2023-04-02T09:28:32.603Z,17.20
2023-04-02T09:31:30.111Z,16.50
2023-04-02T09:34:02.612Z,16.50
2023-04-02T09:39:42.536Z,16.60
2023-04-02T09:42:50.584Z,16.70
2023-04-02T09:45:56.029Z,16.70
2023-04-02T09:49:10.074Z,16.70
2023-04-02T09:51:45.966Z,16.80
2023-04-02T09:54:17.253Z,17.00
2023-04-02T09:57:13.639Z,17.10
2023-04-02T09:59:44.064Z,17.20
2023-04-02T10:02:37.815Z,17.40
2023-04-02T10:05:40.017Z,17.70
2023-04-02T10:08:44.857Z,17.80
2023-04-02T10:14:43.395Z,18.70
2023-04-02T10:17:28.728Z,17.80
2023-04-02T10:20:12.290Z,17.40
2023-04-02T10:22:55.371Z,18.00
2023-04-02T10:25:57.045Z,17.80
2023-04-02T10:29:02.189Z,17.90
2023-04-02T10:31:41.288Z,18.80
2023-04-02T10:34:21.635Z,19.40
2023-04-02T10:37:08.992Z,19.50
2023-04-02T10:39:54.225Z,19.80
2023-04-02T10:42:53.499Z,19.50
2023-04-02T10:45:31.882Z,19.40
2023-04-02T10:48:22.506Z,19.80
2023-04-02T10:59:17.286Z,20.10
2023-04-02T11:04:48.449Z,19.80
2023-04-02T11:07:37.834Z,20.00
2023-04-02T11:10:23.443Z,19.90
2023-04-02T11:12:58.708Z,20.40
2023-04-02T11:15:27.653Z,20.30
2023-04-02T11:18:03.549Z,20.30
2023-04-02T11:20:56.416Z,20.00
2023-04-02T11:24:03.869Z,20.00
2023-04-02T11:26:41.546Z,20.40
2023-04-02T11:29:28.916Z,20.60
2023-04-02T11:32:21.236Z,20.50
2023-04-02T11:34:56.351Z,20.70
2023-04-02T11:37:45.239Z,20.80
2023-04-02T11:40:16.096Z,20.40
2023-04-02T11:42:50.138Z,20.70
2023-04-02T11:48:36.329Z,21.40
2023-04-02T11:51:38.390Z,21.40
2023-04-02T11:54:23.283Z,22.00
2023-04-02T11:57:05.520Z,22.30
2023-04-02T11:59:57.144Z,22.80
2023-04-02T12:02:46.915Z,23.00
2023-04-02T12:05:26.615Z,22.60
2023-04-02T12:07:55.380Z,22.00
2023-04-02T12:10:24.251Z,22.30
2023-04-02T12:12:52.065Z,22.30
2023-04-02T12:15:44.400Z,22.10
2023-04-02T12:18:24.674Z,22.00
2023-04-02T12:20:56.903Z,22.00
2023-04-02T12:23:38.514Z,22.10
2023-04-02T12:26:24.382Z,21.80
2023-04-02T12:28:51.702Z,21.30
2023-04-02T12:31:28.210Z,21.10
2023-04-02T12:33:59.544Z,22.20
2023-04-02T12:36:27.550Z,25.10
2023-04-02T12:39:01.364Z,26.20
2023-04-02T12:41:37.235Z,28.00
2023-04-02T12:44:11.988Z,28.50
2023-04-02T12:46:44.006Z,27.40
2023-04-02T12:49:45.663Z,27.20
2023-04-02T12:52:21.714Z,26.90
2023-04-02T12:54:58.768Z,28.30
2023-04-02T12:57:31.910Z,28.40
2023-04-02T13:00:25.664Z,28.20
2023-04-02T13:03:06.471Z,28.70
2023-04-02T13:05:59.061Z,28.10
2023-04-02T13:08:37.592Z,24.90
2023-04-02T13:11:06.737Z,23.10
2023-04-02T13:13:39.192Z,23.70
2023-04-02T13:16:14.348Z,22.30
2023-04-02T13:18:51.489Z,22.10
2023-04-02T13:21:32.361Z,21.40
2023-04-02T13:24:04.448Z,21.00
2023-04-02T13:26:33.991Z,20.50
2023-04-02T13:29:10.038Z,20.30
2023-04-02T13:31:37.455Z,20.30
2023-04-02T13:34:05.876Z,20.60
2023-04-02T13:36:35.768Z,21.90
2023-04-02T13:39:07.458Z,24.50
2023-04-02T13:41:45.563Z,26.20
2023-04-02T13:44:24.025Z,27.00
2023-04-02T13:46:52.304Z,25.10
2023-04-02T13:49:20.826Z,25.60
2023-04-02T13:52:02.421Z,27.40
2023-04-02T13:54:47.420Z,27.40
2023-04-02T13:57:23.046Z,27.00
2023-04-02T13:59:50.238Z,27.00
2023-04-02T14:02:24.772Z,26.30
2023-04-02T14:05:34.691Z,26.50
2023-04-02T14:08:20.783Z,28.40
2023-04-02T14:11:07.562Z,28.90
2023-04-02T14:13:44.619Z,29.00
2023-04-02T14:16:17.988Z,28.90
2023-04-02T14:18:51.563Z,28.30
2023-04-02T14:21:31.396Z,28.30
2023-04-02T14:24:44.497Z,28.10
2023-04-02T14:27:20.898Z,27.90
2023-04-02T14:29:54.878Z,28.70
2023-04-02T14:33:05.188Z,28.40
2023-04-02T14:35:50.537Z,27.50
2023-04-02T14:38:51.097Z,29.50
2023-04-02T14:42:11.623Z,28.80
2023-04-02T14:50:49.280Z,29.60
2023-04-02T14:53:29.331Z,29.40
2023-04-02T14:56:00.969Z,29.40
2023-04-02T14:58:40.989Z,29.20
2023-04-02T15:01:28.318Z,29.30
2023-04-02T15:04:15.448Z,28.20
2023-04-02T15:06:47.632Z,27.60
2023-04-02T15:09:25.552Z,26.50
2023-04-02T15:12:00.413Z,25.90
2023-04-02T15:14:35.578Z,25.90
2023-04-02T15:17:06.340Z,26.80
2023-04-02T15:19:53.056Z,26.50
2023-04-02T15:22:57.434Z,26.50
2023-04-02T15:25:36.886Z,26.30
2023-04-02T15:28:22.654Z,26.60
2023-04-02T15:30:57.393Z,25.60
2023-04-02T15:33:32.116Z,24.50
2023-04-02T15:36:42.189Z,24.40
2023-04-02T15:39:32.449Z,24.70
2023-04-02T15:42:16.622Z,24.90
2023-04-02T15:45:09.988Z,24.90
2023-04-02T15:47:50.894Z,25.60
2023-04-02T15:50:36.571Z,26.60
2023-04-02T15:53:33.631Z,27.90
2023-04-02T15:56:23.943Z,27.90
2023-04-02T15:59:14.049Z,27.70
2023-04-02T16:02:09.965Z,27.90
2023-04-02T16:04:56.533Z,27.40
2023-04-02T16:07:51.475Z,27.50
2023-04-02T16:10:43.191Z,27.60
2023-04-02T16:13:35.987Z,27.20
2023-04-02T16:16:29.523Z,27.50
2023-04-02T16:19:22.928Z,27.10
2023-04-02T16:22:14.258Z,26.50
2023-04-02T16:24:41.594Z,25.90
2023-04-02T16:27:21.082Z,24.80
2023-04-02T16:33:13.707Z,23.70
2023-04-02T16:36:00.412Z,22.00
2023-04-02T16:38:41.693Z,21.00
2023-04-02T16:41:47.401Z,20.50
2023-04-02T16:44:56.294Z,20.10
2023-04-02T16:47:35.943Z,19.60
2023-04-02T16:50:27.023Z,19.30
2023-04-02T16:53:25.276Z,19.00
2023-04-02T16:56:18.438Z,18.90
2023-04-02T16:59:14.315Z,18.60
2023-04-02T17:02:33.164Z,18.50
2023-04-02T17:05:29.814Z,18.30
2023-04-02T17:08:30.555Z,18.30
2023-04-02T17:11:06.000Z,18.10
2023-04-02T17:13:34.040Z,18.10
2023-04-02T17:16:22.094Z,17.90
2023-04-02T17:18:53.372Z,17.90
2023-04-02T17:21:27.402Z,17.80
2023-04-02T17:24:27.926Z,17.80
2023-04-02T17:27:08.774Z,17.80
2023-04-02T17:29:45.999Z,17.70
2023-04-02T17:32:36.324Z,17.70
2023-04-02T17:35:52.000Z,17.60
2023-04-02T17:38:33.697Z,17.40
2023-04-02T17:41:26.111Z,17.50
2023-04-02T17:44:31.153Z,17.50
2023-04-02T17:47:41.206Z,17.40
2023-04-02T17:50:54.982Z,17.50
2023-04-02T17:53:44.221Z,17.50
2023-04-02T18:00:15.917Z,17.40
2023-04-02T18:02:43.499Z,17.20
2023-04-02T18:05:29.171Z,17.00
2023-04-02T18:08:27.520Z,16.90
2023-04-02T18:14:37.881Z,16.70
2023-04-02T18:17:13.440Z,16.60
2023-04-02T18:20:01.703Z,16.50
2023-04-02T18:23:02.641Z,16.20
2023-04-02T18:25:39.751Z,16.00
2023-04-02T18:28:43.874Z,15.90
2023-04-02T18:31:14.188Z,15.90
2023-04-02T18:34:17.015Z,15.90
2023-04-02T18:37:20.066Z,15.80
2023-04-02T18:40:09.068Z,15.90
2023-04-02T18:42:53.678Z,16.00
2023-04-02T18:46:02.112Z,15.90
2023-04-02T18:49:09.341Z,15.90
2023-04-02T18:51:40.983Z,16.10
2023-04-02T18:54:38.955Z,16.00
2023-04-02T18:57:36.083Z,16.10
2023-04-02T19:00:29.012Z,16.00
2023-04-02T19:04:17.186Z,15.90
2023-04-02T19:07:25.143Z,16.00
2023-04-02T19:09:56.634Z,16.00
2023-04-02T19:12:31.261Z,15.70
2023-04-02T19:15:02.915Z,15.70
2023-04-02T19:17:46.525Z,15.80
2023-04-02T19:20:35.177Z,15.60
2023-04-02T19:23:44.427Z,15.10
2023-04-02T19:26:26.339Z,15.10
2023-04-02T19:29:51.642Z,15.20
2023-04-02T19:32:38.352Z,15.20
2023-04-02T19:35:36.806Z,14.70
2023-04-02T19:38:22.704Z,14.70
2023-04-02T19:40:57.189Z,14.70
2023-04-02T19:46:09.377Z,14.50
2023-04-02T19:48:51.728Z,14.50
2023-04-02T19:51:25.686Z,14.30
2023-04-02T19:54:13.304Z,14.40
2023-04-02T19:56:43.971Z,14.50
2023-04-02T19:59:19.070Z,14.60
2023-04-02T20:02:18.435Z,14.40
2023-04-02T20:05:04.110Z,14.50
2023-04-02T20:07:52.574Z,14.50
2023-04-02T20:10:21.962Z,14.50
2023-04-02T20:12:58.079Z,14.40
2023-04-02T20:15:39.017Z,14.20
2023-04-02T20:18:20.672Z,14.20
2023-04-02T20:20:48.741Z,14.50
2023-04-02T20:23:17.977Z,14.70
2023-04-02T20:29:36.516Z,14.70
2023-04-02T20:32:08.514Z,14.80
2023-04-02T20:34:40.079Z,14.90
2023-04-02T20:37:15.236Z,14.90
2023-04-02T20:39:43.464Z,14.80
2023-04-02T20:42:14.295Z,14.90
2023-04-02T20:44:43.480Z,14.90
2023-04-02T20:47:11.132Z,14.90
2023-04-02T20:49:38.271Z,14.90
2023-04-02T20:52:11.297Z,14.80
2023-04-02T20:54:40.939Z,14.70
2023-04-02T20:57:08.259Z,14.70
2023-04-02T20:59:59.057Z,14.60
2023-04-02T21:02:26.307Z,14.40
2023-04-02T21:04:57.305Z,14.30
2023-04-02T21:07:30.891Z,14.30
2023-04-02T21:10:01.947Z,14.30
2023-04-02T21:12:32.581Z,14.40
2023-04-02T21:15:02.221Z,14.40
2023-04-02T21:17:30.742Z,14.30
2023-04-02T21:19:58.130Z,14.30
2023-04-02T21:22:28.288Z,14.30
2023-04-02T21:24:58.613Z,14.20
2023-04-02T21:27:26.244Z,14.00
2023-04-02T21:29:53.980Z,14.00
2023-04-02T21:32:22.316Z,13.90
2023-04-02T21:34:49.910Z,13.80
2023-04-02T21:37:17.185Z,13.70
2023-04-02T21:39:46.974Z,13.50
2023-04-02T21:42:15.319Z,13.40
2023-04-02T21:44:45.558Z,13.40
2023-04-02T21:47:20.803Z,13.40
2023-04-02T21:49:51.592Z,13.40
2023-04-02T21:52:30.952Z,13.40
2023-04-02T21:55:02.400Z,13.60
2023-04-02T21:57:47.406Z,13.60
2023-04-02T22:00:19.879Z,13.60
2023-04-02T22:02:47.592Z,13.50
2023-04-02T22:05:24.091Z,13.60
2023-04-02T22:07:54.962Z,13.70
2023-04-02T22:10:23.297Z,13.80
2023-04-02T22:12:52.042Z,13.40
2023-04-02T22:15:23.224Z,13.10
2023-04-02T22:17:53.562Z,12.90
2023-04-02T22:20:23.671Z,12.90
2023-04-02T22:22:57.944Z,13.10
2023-04-02T22:25:32.772Z,13.10
2023-04-02T22:28:03.753Z,13.10
2023-04-02T22:30:31.480Z,13.20
2023-04-02T22:33:36.042Z,13.10
2023-04-02T22:36:15.182Z,12.90
2023-04-02T22:38:48.988Z,12.70
2023-04-02T22:41:18.906Z,12.50
2023-04-02T22:43:46.641Z,12.80
2023-04-02T22:46:16.511Z,12.70
2023-04-02T22:48:44.761Z,12.70
2023-04-02T22:51:21.825Z,12.70
2023-04-02T22:53:54.927Z,12.80
2023-04-02T22:56:32.159Z,12.60
2023-04-02T22:59:00.929Z,12.60
2023-04-02T23:01:34.835Z,12.50
2023-04-02T23:04:05.635Z,12.50
2023-04-02T23:06:48.489Z,12.50
2023-04-02T23:09:56.974Z,12.70
2023-04-02T23:12:43.391Z,12.70
2023-04-02T23:15:11.403Z,12.70
2023-04-02T23:17:39.093Z,12.70
2023-04-02T23:20:11.146Z,12.70
2023-04-02T23:22:39.871Z,12.40
2023-04-02T23:25:19.921Z,12.30
2023-04-02T23:27:49.681Z,12.20
2023-04-02T23:30:17.117Z,12.50
2023-04-02T23:32:44.352Z,12.50
2023-04-02T23:35:11.613Z,12.30
2023-04-02T23:37:38.787Z,12.40
2023-04-02T23:40:06.709Z,12.20
2023-04-02T23:42:34.334Z,12.20
2023-04-02T23:45:01.833Z,12.20
2023-04-02T23:47:29.437Z,11.90
2023-04-02T23:52:41.465Z,12.00
2023-04-02T23:55:19.840Z,12.10
2023-04-02T23:57:47.148Z,12.10
